createdAt,value
2018-04-18T00:02:07.977Z,10.20
2018-04-18T00:04:36.271Z,10.10
2018-04-18T00:07:04.568Z,9.90
2018-04-18T00:09:32.891Z,10.00
2018-04-18T00:12:01.949Z,9.90
2018-04-18T00:14:30.779Z,9.90
2018-04-18T00:16:59.108Z,9.80
2018-04-18T00:19:27.413Z,9.80
2018-04-18T00:21:56.495Z,9.80
2018-04-18T00:24:25.271Z,9.80
2018-04-18T00:26:53.632Z,9.90
2018-04-18T00:29:21.910Z,9.90
2018-04-18T00:31:50.248Z,10.00
2018-04-18T00:34:18.557Z,10.00
2018-04-18T00:36:46.888Z,9.90
2018-04-18T00:39:15.176Z,9.90
2018-04-18T00:41:43.478Z,9.80
2018-04-18T00:44:11.791Z,9.80
2018-04-18T00:46:40.074Z,9.70
2018-04-18T00:49:08.387Z,9.50
2018-04-18T00:51:38.148Z,9.50
2018-04-18T00:54:06.476Z,9.40
2018-04-18T00:56:34.764Z,9.20
2018-04-18T00:59:03.052Z,9.10
2018-04-18T01:01:32.118Z,9.20
2018-04-18T01:04:00.411Z,9.10
2018-04-18T01:06:28.706Z,9.10
2018-04-18T01:08:57.015Z,9.10
2018-04-18T01:11:25.299Z,8.90
2018-04-18T01:13:54.147Z,8.60
2018-04-18T01:16:23.134Z,8.50
2018-04-18T01:18:51.457Z,8.40
2018-04-18T01:21:19.772Z,8.40
2018-04-18T01:23:48.083Z,8.50
2018-04-18T01:26:16.363Z,8.60
2018-04-18T01:28:45.715Z,8.50
2018-04-18T01:31:14.141Z,8.50
2018-04-18T01:33:42.429Z,8.50
2018-04-18T01:36:11.263Z,8.50
2018-04-18T01:38:40.004Z,8.50
2018-04-18T01:41:08.524Z,8.30
2018-04-18T01:43:37.599Z,8.30
2018-04-18T01:46:05.883Z,8.20
2018-04-18T01:48:34.215Z,8.30
2018-04-18T01:51:02.499Z,8.40
2018-04-18T01:53:30.827Z,8.40
2018-04-18T01:55:59.538Z,8.20
2018-04-18T01:58:27.868Z,8.10
2018-04-18T02:00:56.159Z,8.30
2018-04-18T02:03:24.495Z,8.20
2018-04-18T02:05:52.783Z,8.30
2018-04-18T02:08:21.079Z,8.40
2018-04-18T02:10:49.439Z,8.30
2018-04-18T02:13:17.725Z,8.20
2018-04-18T02:15:46.385Z,7.90
2018-04-18T02:18:14.791Z,7.80
2018-04-18T02:20:43.085Z,7.90
2018-04-18T02:23:12.680Z,8.00
2018-04-18T02:25:41.091Z,8.20
2018-04-18T02:28:09.719Z,8.10
2018-04-18T02:30:38.007Z,8.00
2018-04-18T02:33:06.647Z,8.00
2018-04-18T02:35:35.427Z,7.90
2018-04-18T02:38:03.712Z,7.90
2018-04-18T02:40:32.061Z,8.00
2018-04-18T02:43:00.367Z,8.10
2018-04-18T02:45:29.355Z,8.10
2018-04-18T02:47:57.681Z,8.00
2018-04-18T02:50:26.323Z,7.80
2018-04-18T02:52:55.172Z,7.70
2018-04-18T02:55:23.455Z,7.80
2018-04-18T02:57:51.859Z,7.90
2018-04-18T03:00:20.185Z,7.80
2018-04-18T03:02:48.823Z,7.60
2018-04-18T03:05:17.450Z,7.40
2018-04-18T03:07:45.738Z,7.30
2018-04-18T03:10:14.035Z,7.50
2018-04-18T03:12:42.470Z,7.70
2018-04-18T03:15:10.763Z,7.70
2018-04-18T03:17:39.059Z,7.50
2018-04-18T03:20:07.575Z,7.30
2018-04-18T03:22:35.854Z,7.50
2018-04-18T03:25:04.913Z,7.60
2018-04-18T03:27:33.253Z,7.60
2018-04-18T03:30:02.009Z,7.40
2018-04-18T03:32:30.304Z,7.10
2018-04-18T03:34:59.149Z,7.10
2018-04-18T03:37:27.431Z,7.00
2018-04-18T03:39:56.369Z,7.00
2018-04-18T03:42:24.685Z,6.90
2018-04-18T03:44:52.982Z,7.00
2018-04-18T03:47:21.330Z,7.10
2018-04-18T03:49:49.635Z,7.00
2018-04-18T03:52:18.131Z,7.00
2018-04-18T03:54:46.462Z,7.10
2018-04-18T03:57:14.744Z,7.30
2018-04-18T03:59:43.341Z,7.20
2018-04-18T04:02:11.639Z,7.00
2018-04-18T04:04:40.111Z,7.00
2018-04-18T04:07:08.448Z,7.20
2018-04-18T04:09:36.732Z,7.20
2018-04-18T04:12:05.166Z,7.10
2018-04-18T04:14:34.039Z,7.00
2018-04-18T04:17:19.963Z,6.80
2018-04-18T04:20:05.960Z,6.70
2018-04-18T04:22:52.431Z,6.60
2018-04-18T04:25:21.175Z,6.60
2018-04-18T04:27:49.496Z,6.80
2018-04-18T04:30:17.775Z,7.00
2018-04-18T04:32:46.201Z,7.10
2018-04-18T04:35:14.239Z,7.10
2018-04-18T04:37:42.705Z,7.30
2018-04-18T04:40:11.032Z,7.20
2018-04-18T04:42:39.315Z,7.20
2018-04-18T04:45:07.594Z,7.20
2018-04-18T04:47:35.715Z,7.00
2018-04-18T04:50:04.011Z,7.00
2018-04-18T04:52:32.291Z,7.20
2018-04-18T04:55:00.611Z,7.10
2018-04-18T04:57:28.900Z,7.10
2018-04-18T04:59:57.181Z,7.10
2018-04-18T05:02:25.316Z,7.10
2018-04-18T05:04:53.511Z,7.40
2018-04-18T05:07:21.795Z,7.50
2018-04-18T05:09:50.135Z,7.50
2018-04-18T05:12:18.421Z,7.50
2018-04-18T05:14:47.030Z,7.80
2018-04-18T05:19:49.391Z,9.50
2018-04-18T05:22:18.439Z,10.90
2018-04-18T05:24:47.151Z,10.90
2018-04-18T05:27:15.503Z,11.50
2018-04-18T05:29:43.651Z,11.70
2018-04-18T05:32:12.243Z,12.20
2018-04-18T05:34:41.145Z,12.40
2018-04-18T05:37:09.475Z,12.80
2018-04-18T05:39:37.767Z,13.30
2018-04-18T05:42:06.059Z,13.70
2018-04-18T05:44:34.394Z,14.40
2018-04-18T05:47:03.444Z,15.60
2018-04-18T05:49:31.727Z,15.60
2018-04-18T05:52:00.034Z,16.10
2018-04-18T05:54:28.323Z,16.60
2018-04-18T05:56:57.431Z,17.00
2018-04-18T05:59:25.736Z,16.90
2018-04-18T06:01:54.024Z,16.80
2018-04-18T06:04:24.238Z,17.40
2018-04-18T06:06:52.615Z,17.90
2018-04-18T06:09:20.911Z,17.70
2018-04-18T06:11:49.391Z,17.40
2018-04-18T06:14:17.683Z,17.10
2018-04-18T06:16:45.963Z,17.30
2018-04-18T06:19:14.353Z,18.00
2018-04-18T06:21:42.637Z,18.30
2018-04-18T06:24:10.931Z,18.40
2018-04-18T06:26:40.043Z,18.00
2018-04-18T06:29:08.326Z,17.90
2018-04-18T06:31:36.999Z,18.50
2018-04-18T06:34:05.324Z,19.00
2018-04-18T06:36:33.612Z,19.10
2018-04-18T06:39:01.663Z,19.30
2018-04-18T06:41:30.003Z,18.90
2018-04-18T06:43:59.104Z,19.20
2018-04-18T06:46:27.398Z,20.00
2018-04-18T06:48:55.699Z,20.20
2018-04-18T06:51:23.983Z,20.60
2018-04-18T06:53:52.295Z,20.40
2018-04-18T06:56:21.859Z,20.00
2018-04-18T06:58:50.202Z,20.00
2018-04-18T07:01:18.725Z,20.40
2018-04-18T07:03:47.016Z,20.30
2018-04-18T07:06:16.395Z,20.60
2018-04-18T07:08:44.699Z,20.50
2018-04-18T07:11:13.045Z,20.90
2018-04-18T07:13:41.351Z,20.40
2018-04-18T07:16:09.638Z,20.80
2018-04-18T07:18:38.686Z,21.70
2018-04-18T07:21:07.122Z,21.70
2018-04-18T07:23:35.416Z,22.50
2018-04-18T07:26:03.708Z,22.10
2018-04-18T07:28:32.039Z,22.20
2018-04-18T07:31:00.331Z,21.70
2018-04-18T07:33:29.380Z,22.30
2018-04-18T07:35:57.692Z,22.30
2018-04-18T07:38:26.742Z,24.70
2018-04-18T07:40:55.051Z,24.70
2018-04-18T07:43:23.432Z,25.70
2018-04-18T07:45:51.775Z,25.80
2018-04-18T07:48:20.063Z,25.60
2018-04-18T07:50:49.059Z,25.70
2018-04-18T07:53:17.399Z,26.10
2018-04-18T07:55:45.689Z,26.40
2018-04-18T07:58:13.991Z,25.70
2018-04-18T08:00:42.633Z,26.70
2018-04-18T08:03:10.931Z,26.80
2018-04-18T08:05:39.223Z,27.00
2018-04-18T08:08:07.543Z,26.60
2018-04-18T08:10:36.747Z,26.40
2018-04-18T08:13:05.416Z,26.00
2018-04-18T08:15:34.303Z,27.30
2018-04-18T08:18:02.603Z,28.00
2018-04-18T08:20:30.892Z,29.10
2018-04-18T08:22:59.808Z,28.30
2018-04-18T08:25:28.435Z,28.70
2018-04-18T08:27:58.350Z,28.70
2018-04-18T08:30:27.219Z,27.50
2018-04-18T08:32:55.512Z,29.10
2018-04-18T08:35:23.823Z,29.40
2018-04-18T08:37:52.158Z,29.30
2018-04-18T08:40:20.531Z,29.00
2018-04-18T08:42:48.587Z,29.80
2018-04-18T08:45:16.907Z,28.70
2018-04-18T08:47:45.208Z,27.20
2018-04-18T08:50:13.500Z,27.00
2018-04-18T08:52:41.839Z,26.90
2018-04-18T08:55:10.132Z,27.10
2018-04-18T08:57:38.499Z,28.20
2018-04-18T09:00:06.876Z,29.60
2018-04-18T09:02:35.163Z,29.80
2018-04-18T09:05:04.220Z,29.70
2018-04-18T09:07:32.755Z,29.70
2018-04-18T09:10:01.041Z,29.00
2018-04-18T09:12:29.983Z,27.90
2018-04-18T09:14:58.312Z,28.60
2018-04-18T09:17:26.601Z,28.60
2018-04-18T09:19:54.895Z,27.50
2018-04-18T09:22:23.220Z,27.50
2018-04-18T09:24:51.567Z,26.90
2018-04-18T09:27:19.863Z,26.80
2018-04-18T09:29:48.204Z,26.30
2018-04-18T09:32:16.490Z,26.70
2018-04-18T09:34:44.781Z,27.10
2018-04-18T09:37:13.431Z,27.50
2018-04-18T09:39:41.770Z,27.40
2018-04-18T09:42:10.320Z,27.20
2018-04-18T09:44:39.200Z,26.80
2018-04-18T09:47:07.487Z,27.70
2018-04-18T09:49:35.783Z,28.10
2018-04-18T09:52:04.128Z,28.70
2018-04-18T09:54:32.423Z,28.70
2018-04-18T09:57:00.715Z,29.20
2018-04-18T09:59:29.040Z,28.20
2018-04-18T10:01:57.323Z,28.40
2018-04-18T10:04:29.443Z,29.10
2018-04-18T10:06:57.739Z,28.00
2018-04-18T10:09:26.219Z,26.70
2018-04-18T10:11:54.959Z,27.40
2018-04-18T10:14:23.250Z,27.80
2018-04-18T10:16:51.711Z,27.90
2018-04-18T10:19:20.023Z,26.90
2018-04-18T10:21:48.306Z,26.70
2018-04-18T10:24:16.639Z,27.60
2018-04-18T10:26:44.931Z,28.10
2018-04-18T10:29:13.215Z,27.00
2018-04-18T10:31:41.673Z,27.10
2018-04-18T10:34:09.914Z,27.00
2018-04-18T10:36:38.606Z,27.60
2018-04-18T10:39:07.127Z,27.60
2018-04-18T10:41:35.700Z,27.10
2018-04-18T10:44:04.040Z,26.80
2018-04-18T10:46:32.360Z,26.50
2018-04-18T10:49:00.639Z,26.90
2018-04-18T10:51:28.979Z,27.10
2018-04-18T10:53:57.263Z,26.70
2018-04-18T10:56:26.460Z,27.70
2018-04-18T10:58:55.159Z,27.70
2018-04-18T11:01:23.443Z,28.40
2018-04-18T11:03:51.733Z,28.10
2018-04-18T11:06:21.354Z,28.90
2018-04-18T11:08:49.644Z,29.70
2018-04-18T11:11:18.002Z,31.50
2018-04-18T11:13:46.419Z,31.00
2018-04-18T11:16:14.700Z,29.70
2018-04-18T11:18:43.040Z,29.60
2018-04-18T11:21:11.371Z,30.20
2018-04-18T11:23:39.861Z,30.30
2018-04-18T11:26:08.155Z,28.90
2018-04-18T11:28:36.431Z,27.80
2018-04-18T11:31:04.723Z,28.50
2018-04-18T11:33:33.078Z,29.70
2018-04-18T11:36:01.418Z,28.80
2018-04-18T11:38:30.466Z,27.60
2018-04-18T11:40:59.244Z,27.50
2018-04-18T11:43:28.152Z,27.80
2018-04-18T11:45:56.434Z,28.00
2018-04-18T11:48:24.719Z,28.30
2018-04-18T11:50:53.064Z,29.00
2018-04-18T11:53:21.360Z,29.10
2018-04-18T11:55:49.638Z,28.60
2018-04-18T11:58:19.439Z,28.00
2018-04-18T12:00:47.735Z,28.80
2018-04-18T12:03:16.025Z,28.90
2018-04-18T12:05:44.349Z,29.40
2018-04-18T12:08:12.635Z,29.10
2018-04-18T12:10:40.927Z,28.20
2018-04-18T12:13:09.873Z,27.60
2018-04-18T12:15:38.925Z,27.60
2018-04-18T12:18:07.222Z,27.60
2018-04-18T12:20:35.548Z,28.40
2018-04-18T12:23:03.835Z,29.70
2018-04-18T12:25:32.128Z,30.80
2018-04-18T12:28:00.544Z,30.70
2018-04-18T12:30:28.876Z,29.70
2018-04-18T12:32:57.212Z,28.70
2018-04-18T12:35:25.631Z,27.70
2018-04-18T12:37:53.968Z,27.30
2018-04-18T12:40:22.282Z,26.80
2018-04-18T12:42:50.691Z,26.50
2018-04-18T12:45:18.982Z,25.90
2018-04-18T12:47:47.359Z,25.70
2018-04-18T12:50:15.716Z,25.40
2018-04-18T12:52:43.998Z,25.10
2018-04-18T12:55:12.279Z,25.10
2018-04-18T12:57:40.799Z,25.40
2018-04-18T13:00:09.563Z,25.80
2018-04-18T13:02:40.123Z,25.90
2018-04-18T13:05:08.407Z,26.20
2018-04-18T13:07:36.691Z,26.90
2018-04-18T13:10:05.019Z,27.30
2018-04-18T13:12:33.331Z,27.80
2018-04-18T13:15:01.607Z,28.10
2018-04-18T13:17:29.931Z,28.60
2018-04-18T13:19:58.371Z,28.80
2018-04-18T13:22:26.899Z,28.60
2018-04-18T13:24:55.835Z,28.70
2018-04-18T13:27:24.887Z,28.10
2018-04-18T13:29:53.879Z,28.10
2018-04-18T13:32:22.259Z,28.10
2018-04-18T13:34:51.072Z,28.80
2018-04-18T13:37:19.567Z,28.40
2018-04-18T13:39:47.915Z,28.20
2018-04-18T13:42:16.203Z,28.10
2018-04-18T13:44:44.490Z,28.10
2018-04-18T13:47:12.743Z,27.90
2018-04-18T13:49:41.869Z,27.60
2018-04-18T13:52:10.619Z,27.50
2018-04-18T13:54:38.917Z,27.60
2018-04-18T13:57:07.737Z,28.00
2018-04-18T13:59:36.441Z,28.70
2018-04-18T14:02:05.870Z,28.40
2018-04-18T14:04:34.136Z,28.40
2018-04-18T14:07:02.494Z,28.30
2018-04-18T14:09:30.839Z,28.30
2018-04-18T14:11:59.169Z,28.20
2018-04-18T14:14:27.498Z,28.10
2018-04-18T14:16:55.927Z,28.70
2018-04-18T14:19:24.579Z,28.50
2018-04-18T14:21:52.938Z,28.40
2018-04-18T14:24:21.628Z,28.70
2018-04-18T14:26:49.916Z,29.00
2018-04-18T14:29:18.917Z,29.00
2018-04-18T14:31:47.239Z,28.90
2018-04-18T14:34:15.638Z,28.90
2018-04-18T14:36:44.731Z,28.40
2018-04-18T14:39:13.059Z,28.70
2018-04-18T14:41:41.348Z,29.20
2018-04-18T14:44:09.632Z,29.00
2018-04-18T14:46:37.965Z,29.00
2018-04-18T14:49:06.251Z,28.90
2018-04-18T14:51:35.322Z,28.90
2018-04-18T14:54:03.665Z,28.90
2018-04-18T14:56:32.066Z,29.00
2018-04-18T14:59:00.372Z,29.00
2018-04-18T15:01:28.699Z,29.10
2018-04-18T15:03:56.999Z,28.50
2018-04-18T15:06:25.296Z,28.00
2018-04-18T15:08:53.629Z,28.20
2018-04-18T15:11:22.085Z,28.40
2018-04-18T15:13:51.076Z,28.40
2018-04-18T15:16:20.305Z,27.40
2018-04-18T15:18:49.355Z,27.40
2018-04-18T15:21:19.034Z,27.40
2018-04-18T15:23:48.132Z,27.20
2018-04-18T15:26:16.455Z,27.40
2018-04-18T15:28:44.795Z,28.10
2018-04-18T15:31:13.664Z,27.90
2018-04-18T15:33:41.966Z,27.40
2018-04-18T15:36:11.096Z,27.10
2018-04-18T15:38:40.266Z,27.60
2018-04-18T15:41:08.623Z,27.60
2018-04-18T15:43:36.767Z,27.60
2018-04-18T15:46:05.499Z,27.70
2018-04-18T15:48:34.691Z,27.90
2018-04-18T15:51:03.968Z,27.70
2018-04-18T15:53:33.010Z,27.60
2018-04-18T15:56:01.352Z,27.40
2018-04-18T15:58:30.377Z,27.50
2018-04-18T16:00:58.783Z,27.40
2018-04-18T16:03:27.835Z,27.50
2018-04-18T16:05:56.880Z,27.60
2018-04-18T16:08:25.264Z,27.70
2018-04-18T16:10:53.583Z,27.50
2018-04-18T16:13:21.978Z,27.10
2018-04-18T16:15:50.400Z,26.60
2018-04-18T16:18:19.270Z,26.20
2018-04-18T16:20:48.142Z,26.10
2018-04-18T16:23:17.251Z,26.30
2018-04-18T16:25:46.367Z,26.40
2018-04-18T16:28:14.679Z,26.20
2018-04-18T16:30:44.709Z,26.20
2018-04-18T16:33:13.654Z,26.00
2018-04-18T16:35:41.982Z,26.10
2018-04-18T16:38:10.491Z,25.80
2018-04-18T16:40:39.198Z,25.90
2018-04-18T16:43:07.603Z,26.00
2018-04-18T16:45:36.155Z,25.90
2018-04-18T16:48:04.983Z,25.90
2018-04-18T16:50:34.182Z,26.10
2018-04-18T16:53:02.998Z,26.00
2018-04-18T16:55:31.323Z,26.20
2018-04-18T16:57:59.891Z,26.10
2018-04-18T17:00:28.378Z,25.80
2018-04-18T17:02:56.988Z,25.60
2018-04-18T17:05:25.581Z,25.20
2018-04-18T17:07:54.491Z,25.10
2018-04-18T17:10:22.682Z,25.10
2018-04-18T17:12:50.963Z,25.10
2018-04-18T17:15:19.415Z,24.90
2018-04-18T17:17:47.702Z,24.50
2018-04-18T17:20:16.051Z,23.90
2018-04-18T17:22:44.846Z,23.40
2018-04-18T17:25:13.131Z,23.00
2018-04-18T17:27:41.755Z,22.90
2018-04-18T17:30:10.048Z,22.80
2018-04-18T17:32:38.499Z,23.00
2018-04-18T17:35:06.832Z,23.10
2018-04-18T17:37:36.182Z,23.20
2018-04-18T17:40:04.475Z,23.10
2018-04-18T17:42:32.878Z,23.00
2018-04-18T17:45:01.768Z,22.60
2018-04-18T17:47:30.511Z,22.20
2018-04-18T17:49:58.873Z,21.90
2018-04-18T17:52:27.163Z,21.70
2018-04-18T17:54:56.043Z,21.70
2018-04-18T17:57:24.402Z,21.40
2018-04-18T17:59:52.735Z,21.20
2018-04-18T18:02:21.017Z,21.00
2018-04-18T18:04:49.343Z,20.90
2018-04-18T18:07:17.633Z,20.70
2018-04-18T18:09:45.924Z,20.60
2018-04-18T18:12:14.335Z,20.60
2018-04-18T18:14:43.927Z,20.50
2018-04-18T18:17:12.987Z,20.20
2018-04-18T18:19:41.333Z,20.20
2018-04-18T18:22:10.284Z,19.90
2018-04-18T18:24:39.472Z,19.90
2018-04-18T18:27:08.219Z,19.80
2018-04-18T18:29:36.775Z,19.60
2018-04-18T18:32:05.939Z,19.40
2018-04-18T18:34:35.020Z,19.30
2018-04-18T18:37:03.311Z,19.10
2018-04-18T18:39:31.666Z,18.90
2018-04-18T18:41:59.971Z,18.70
2018-04-18T18:44:28.265Z,18.40
2018-04-18T18:46:56.664Z,18.30
2018-04-18T18:49:25.376Z,18.10
2018-04-18T18:51:53.664Z,17.90
2018-04-18T18:54:21.999Z,17.80
2018-04-18T18:56:50.278Z,17.50
2018-04-18T18:59:18.781Z,17.50
2018-04-18T19:01:47.197Z,17.20
2018-04-18T19:04:15.918Z,17.10
2018-04-18T19:06:44.351Z,17.20
2018-04-18T19:09:12.692Z,17.00
2018-04-18T19:11:40.975Z,16.90
2018-04-18T19:14:09.299Z,16.80
2018-04-18T19:16:37.631Z,16.80
2018-04-18T19:19:05.745Z,16.60
2018-04-18T19:21:34.187Z,16.40
2018-04-18T19:24:02.375Z,16.30
2018-04-18T19:26:31.307Z,16.10
2018-04-18T19:28:59.932Z,16.00
2018-04-18T19:31:28.256Z,15.90
2018-04-18T19:33:57.228Z,15.90
2018-04-18T19:36:25.528Z,15.90
2018-04-18T19:38:54.010Z,15.80
2018-04-18T19:41:23.127Z,15.60
2018-04-18T19:43:51.435Z,15.50
2018-04-18T19:46:19.913Z,15.40
2018-04-18T19:48:48.268Z,15.20
2018-04-18T19:51:16.718Z,15.20
2018-04-18T19:53:45.000Z,15.30
2018-04-18T19:56:14.867Z,15.30
2018-04-18T19:58:43.163Z,15.30
2018-04-18T20:01:12.429Z,15.50
2018-04-18T20:03:40.923Z,15.50
2018-04-18T20:06:09.564Z,15.30
2018-04-18T20:08:37.900Z,15.60
2018-04-18T20:11:06.305Z,15.40
2018-04-18T20:13:35.175Z,15.30
2018-04-18T20:16:04.019Z,15.30
2018-04-18T20:18:33.094Z,15.70
2018-04-18T20:21:02.701Z,15.70
2018-04-18T20:23:31.404Z,15.50
2018-04-18T20:26:01.543Z,15.00
2018-04-18T20:28:29.835Z,15.00
2018-04-18T20:30:58.172Z,15.10
2018-04-18T20:33:27.068Z,15.00
2018-04-18T20:35:56.284Z,15.00
2018-04-18T20:38:24.639Z,15.00
2018-04-18T20:40:53.855Z,15.00
2018-04-18T20:43:22.842Z,15.20
2018-04-18T20:45:52.058Z,15.20
2018-04-18T20:48:20.343Z,15.20
2018-04-18T20:50:48.715Z,15.10
2018-04-18T20:53:17.475Z,14.90
2018-04-18T20:55:46.223Z,14.80
2018-04-18T20:58:15.036Z,14.70
2018-04-18T21:00:44.256Z,14.60
2018-04-18T21:03:12.619Z,14.60
2018-04-18T21:05:41.071Z,14.60
2018-04-18T21:08:11.637Z,14.50
2018-04-18T21:10:40.269Z,14.50
2018-04-18T21:13:08.940Z,14.40
2018-04-18T21:15:37.335Z,14.40
2018-04-18T21:18:06.477Z,14.20
2018-04-18T21:20:35.608Z,14.10
2018-04-18T21:23:04.424Z,14.00
2018-04-18T21:25:33.147Z,14.00
2018-04-18T21:28:01.437Z,13.90
2018-04-18T21:30:31.107Z,13.80
2018-04-18T21:32:59.406Z,13.90
2018-04-18T21:35:27.699Z,13.70
2018-04-18T21:37:56.243Z,13.70
2018-04-18T21:40:25.268Z,13.60
2018-04-18T21:42:53.561Z,13.50
2018-04-18T21:45:21.972Z,13.60
2018-04-18T21:47:50.260Z,13.60
2018-04-18T21:50:18.673Z,13.70
2018-04-18T21:52:48.071Z,13.70
2018-04-18T21:55:16.459Z,13.70
2018-04-18T21:57:45.155Z,13.60
2018-04-18T22:00:14.097Z,13.70
2018-04-18T22:02:42.395Z,13.60
2018-04-18T22:05:11.319Z,13.50
2018-04-18T22:07:39.735Z,13.50
2018-04-18T22:10:08.040Z,13.40
2018-04-18T22:12:36.331Z,13.40
2018-04-18T22:15:05.191Z,13.50
2018-04-18T22:17:33.489Z,13.40
2018-04-18T22:20:02.388Z,13.30
2018-04-18T22:22:31.738Z,13.30
2018-04-18T22:25:00.387Z,13.40
2018-04-18T22:27:29.011Z,13.40
2018-04-18T22:29:57.500Z,13.30
2018-04-18T22:32:25.791Z,13.30
2018-04-18T22:34:54.087Z,13.30
2018-04-18T22:37:22.419Z,13.10
2018-04-18T22:39:51.472Z,13.10
2018-04-18T22:42:20.182Z,13.10
2018-04-18T22:44:48.525Z,13.20
2018-04-18T22:47:16.827Z,13.10
2018-04-18T22:49:45.118Z,13.10
2018-04-18T22:52:13.456Z,13.10
2018-04-18T22:54:41.928Z,13.10
2018-04-18T22:57:10.223Z,13.10
2018-04-18T22:59:39.050Z,13.10
2018-04-18T23:02:07.342Z,13.10
2018-04-18T23:04:36.602Z,13.10
2018-04-18T23:07:05.060Z,13.10
2018-04-18T23:09:33.351Z,13.20
2018-04-18T23:12:01.635Z,13.10
2018-04-18T23:14:30.539Z,13.00
2018-04-18T23:16:58.828Z,12.90
2018-04-18T23:19:27.111Z,12.80
2018-04-18T23:21:55.418Z,12.80
2018-04-18T23:24:23.712Z,12.80
2018-04-18T23:26:52.004Z,12.80
2018-04-18T23:29:21.055Z,13.20
2018-04-18T23:31:49.347Z,13.10
2018-04-18T23:34:17.699Z,12.90
2018-04-18T23:36:45.994Z,12.80
2018-04-18T23:39:14.433Z,12.80
2018-04-18T23:41:43.520Z,12.90
2018-04-18T23:44:12.091Z,12.90
2018-04-18T23:46:40.435Z,12.90
2018-04-18T23:49:08.964Z,12.80
2018-04-18T23:51:37.255Z,12.80
2018-04-18T23:54:05.575Z,12.90
2018-04-18T23:56:33.870Z,12.90
2018-04-18T23:59:02.163Z,13.00
